Saint Louis, MO

3:43 PM CDT on May 25, 2015 (GMT -0500)
Webster Groves | | Change Station
CLOSE
Current Station
Personal Weather Station
Location: Webster Groves, MO
Elevation: 571 ft
Nearby Weather Stations

Elev 571 ft 38.59 °N, 90.35 °W | Updated 3 minutes ago

Partly Cloudy
Partly Cloudy
83.5 °F
Feels Like 81 °F
N
7.0
Wind Variable Wind from SE

Today
High -- | Low -- °F
--% Chance of Precip.
Yesterday
High -- | Low -- °F
Precip. -- in
5:42 AM 8:14 PM
First Quarter, 51% visible
Pressure 29.94 in
Visibility 10.0 miles
Clouds Few 5000 ft
Mostly Cloudy 20000 ft
Heat Index 81 °F
Dew Point 32 °F
Humidity 16%
Rainfall 0.00 in
Snow Depth Not available.
UV 5 out of 12
Pollen 7.30 out of 12
Air Quality Not available.
Flu Activity Sporadic
METAR KSTL 251951Z 19010G16KT 10SM FEW050 BKN200 29/17 A2997 RMK AO2 SLP139 T02940167

More Conditions Fewer Conditions

Pressure 29.94 in
Visibility 10.0 miles
Clouds Few 5000 ft
Mostly Cloudy 20000 ft
Heat Index 81 °F
Dew Point 32 °F
Humidity 16%
Rainfall 0.00 in
Snow Depth Not available.
UV 5 out of 12
Pollen 7.30 out of 12
Air Quality Not available.
Flu Activity Sporadic
METAR KSTL 251951Z 19010G16KT 10SM FEW050 BKN200 29/17 A2997 RMK AO2 SLP139 T02940167

More Conditions Fewer Conditions

10-Day Weather Forecast

Almanac

Astronomy

May. 25, 2015 Rise Set
Actual Time
Civil Twilight
Nautical Twilight
Astronomical Twilight
Moon
Length of Visible Light
Length of Day
Tomorrow will be .
, % of the Moon is Illuminated

Today's Extremes

State Highs State Lows

Community

WunderPhotos

Upload Photos

1,824,127 photos uploaded!

WunderBlogs® & News

Nearby

Air Quality

  Air Quality AQ Index Pollutant
Not available.

Snow Depth

Station Depth Elevation

Earthquake Activity

City Distance Mag. Time & Date
Minimum magnitude displayed is 2.5.

Coastal Water Temperatures

Place Temperature

Stations

Nearby Weather Stations

Station Location Temp. Windchill Dew Point Humidity Wind Precip. Elev Updated Type